createdAt,value
2019-01-04T00:02:13.270Z,116.53
2019-01-04T00:04:53.044Z,116.77
2019-01-04T00:07:33.263Z,116.23
2019-01-04T00:10:13.209Z,115.53
2019-01-04T00:12:53.433Z,121.85
2019-01-04T00:15:34.086Z,118.50
2019-01-04T00:18:14.477Z,117.97
2019-01-04T00:20:55.332Z,119.95
2019-01-04T00:23:35.390Z,121.87
2019-01-04T00:26:15.331Z,117.13
2019-01-04T00:28:55.329Z,115.10
2019-01-04T00:31:35.991Z,117.57
2019-01-04T00:34:16.138Z,124.70
2019-01-04T00:36:55.648Z,117.13
2019-01-04T00:39:35.497Z,118.67
2019-01-04T00:42:15.698Z,126.90
2019-01-04T00:44:55.622Z,118.97
2019-01-04T00:47:35.744Z,121.40
2019-01-04T00:50:15.885Z,125.12
2019-01-04T00:52:55.936Z,125.35
2019-01-04T00:55:36.025Z,123.60
2019-01-04T00:58:16.139Z,117.15
2019-01-04T01:00:56.280Z,121.40
2019-01-04T01:03:36.273Z,120.20
2019-01-04T01:06:16.539Z,118.62
2019-01-04T01:08:56.417Z,119.87
2019-01-04T01:11:36.491Z,122.33
2019-01-04T01:14:16.751Z,119.07
2019-01-04T01:16:56.992Z,124.40
2019-01-04T01:19:36.677Z,123.70
2019-01-04T01:22:16.686Z,118.90
2019-01-04T01:24:56.842Z,116.37
2019-01-04T01:27:38.055Z,116.77
2019-01-04T01:30:17.443Z,120.62
2019-01-04T01:32:56.834Z,124.22
2019-01-04T01:35:36.900Z,122.70
2019-01-04T01:38:16.716Z,117.17
2019-01-04T01:40:56.859Z,117.75
2019-01-04T01:43:36.680Z,121.97
2019-01-04T01:46:16.857Z,125.35
2019-01-04T01:48:56.932Z,120.45
2019-01-04T01:51:36.806Z,121.62
2019-01-04T01:54:17.084Z,122.67
2019-01-04T01:56:57.120Z,123.38
2019-01-04T01:59:36.987Z,122.13
2019-01-04T02:02:17.075Z,121.22
2019-01-04T02:04:56.389Z,120.75
2019-01-04T02:07:36.387Z,126.00
2019-01-04T02:10:16.356Z,121.57
2019-01-04T02:12:56.085Z,121.97
2019-01-04T02:15:36.300Z,124.25
2019-01-04T02:18:16.521Z,122.07
2019-01-04T02:20:56.853Z,122.82
2019-01-04T02:23:36.657Z,121.72
2019-01-04T02:26:16.650Z,127.42
2019-01-04T02:28:56.665Z,136.75
2019-01-04T02:31:36.650Z,123.18
2019-01-04T02:34:16.621Z,124.53
2019-01-04T02:36:56.746Z,119.47
2019-01-04T02:39:36.744Z,126.65
2019-01-04T02:42:16.807Z,123.05
2019-01-04T02:44:56.892Z,130.18
2019-01-04T02:47:37.221Z,121.33
2019-01-04T02:50:17.122Z,124.97
2019-01-04T02:52:57.432Z,129.20
2019-01-04T02:55:37.421Z,123.07
2019-01-04T02:58:17.483Z,122.02
2019-01-04T03:00:57.537Z,121.67
2019-01-04T03:03:37.538Z,121.00
2019-01-04T03:06:17.792Z,124.00
2019-01-04T03:08:57.506Z,119.70
2019-01-04T03:11:37.355Z,123.22
2019-01-04T03:14:17.437Z,123.42
2019-01-04T03:16:57.376Z,125.87
2019-01-04T03:19:37.504Z,119.67
2019-01-04T03:22:17.510Z,123.87
2019-01-04T03:24:57.655Z,121.75
2019-01-04T03:27:37.795Z,121.97
2019-01-04T03:30:18.194Z,121.37
2019-01-04T03:32:58.104Z,122.62
2019-01-04T03:35:35.567Z,127.40
2019-01-04T03:38:15.350Z,122.87
2019-01-04T03:40:55.384Z,120.80
2019-01-04T03:43:35.798Z,123.70
2019-01-04T03:46:15.696Z,125.65
2019-01-04T03:48:55.778Z,124.12
2019-01-04T03:51:35.904Z,130.55
2019-01-04T03:54:16.061Z,139.85
2019-01-04T03:56:55.390Z,130.32
2019-01-04T03:59:35.997Z,129.50
2019-01-04T04:02:16.157Z,133.70
2019-01-04T04:04:56.247Z,130.95
2019-01-04T04:07:36.122Z,125.70
2019-01-04T04:10:16.229Z,129.63
2019-01-04T04:12:56.430Z,130.97
2019-01-04T04:15:36.480Z,135.30
2019-01-04T04:18:14.067Z,148.57
2019-01-04T04:21:00.638Z,146.60
2019-01-04T04:23:59.904Z,128.33
2019-01-04T04:26:40.036Z,127.50
2019-01-04T04:29:20.016Z,131.37
2019-01-04T04:31:59.946Z,134.73
2019-01-04T04:34:39.987Z,128.20
2019-01-04T04:37:20.195Z,131.07
2019-01-04T04:40:00.097Z,131.97
2019-01-04T04:42:40.101Z,126.90
2019-01-04T04:45:20.331Z,127.83
2019-01-04T04:48:00.425Z,126.70
2019-01-04T04:50:40.737Z,129.17
2019-01-04T04:53:20.420Z,126.70
2019-01-04T04:56:00.490Z,132.00
2019-01-04T04:58:40.625Z,139.60
2019-01-04T05:01:20.573Z,128.87
2019-01-04T05:04:00.462Z,132.80
2019-01-04T05:06:40.588Z,127.87
2019-01-04T05:09:21.011Z,126.77
2019-01-04T05:12:00.695Z,132.00
2019-01-04T05:14:40.887Z,130.13
2019-01-04T05:17:20.557Z,124.33
2019-01-04T05:20:00.448Z,137.83
2019-01-04T05:22:40.365Z,129.63
2019-01-04T05:25:20.635Z,124.83
2019-01-04T05:28:00.485Z,125.83
2019-01-04T05:30:40.384Z,127.43
2019-01-04T05:33:20.288Z,131.10
2019-01-04T05:36:00.223Z,130.50
2019-01-04T05:38:39.529Z,131.37
2019-01-04T05:41:19.665Z,128.27
2019-01-04T05:43:59.506Z,126.40
2019-01-04T05:46:39.450Z,129.90
2019-01-04T05:49:19.625Z,127.37
2019-01-04T05:51:59.499Z,124.60
2019-01-04T05:54:39.670Z,127.30
2019-01-04T05:57:19.734Z,128.40
2019-01-04T05:59:59.890Z,126.07
2019-01-04T06:02:39.799Z,124.73
2019-01-04T06:05:19.933Z,123.97
2019-01-04T06:07:59.855Z,122.10
2019-01-04T06:10:40.020Z,128.63
2019-01-04T06:13:19.758Z,131.63
2019-01-04T06:16:00.228Z,125.30
2019-01-04T06:18:39.909Z,120.57
2019-01-04T06:21:20.007Z,124.27
2019-01-04T06:24:01.168Z,121.60
2019-01-04T06:26:41.430Z,125.47
2019-01-04T06:29:21.507Z,123.97
2019-01-04T06:32:01.527Z,125.93
2019-01-04T06:34:41.599Z,125.40
2019-01-04T06:37:21.828Z,128.43
2019-01-04T06:40:02.026Z,124.47
2019-01-04T06:42:41.948Z,124.47
2019-01-04T06:45:22.130Z,124.40
2019-01-04T06:48:01.911Z,122.87
2019-01-04T06:50:42.044Z,127.07
2019-01-04T06:53:22.239Z,124.63
2019-01-04T06:56:02.499Z,127.33
2019-01-04T06:58:42.661Z,121.97
2019-01-04T07:01:23.059Z,125.27
2019-01-04T07:04:03.434Z,119.77
2019-01-04T07:06:43.249Z,123.30
2019-01-04T07:09:23.251Z,129.57
2019-01-04T07:12:03.392Z,121.50
2019-01-04T07:14:43.578Z,124.83
2019-01-04T07:17:23.818Z,121.17
2019-01-04T07:20:03.833Z,132.17
2019-01-04T07:22:44.026Z,123.97
2019-01-04T07:25:24.089Z,122.63
2019-01-04T07:28:04.150Z,129.60
2019-01-04T07:30:41.555Z,118.97
2019-01-04T07:33:27.861Z,125.73
2019-01-04T07:36:07.520Z,117.97
2019-01-04T07:38:47.393Z,127.37
2019-01-04T07:41:27.422Z,121.37
2019-01-04T07:44:07.394Z,126.20
2019-01-04T07:46:47.492Z,125.23
2019-01-04T07:49:27.470Z,119.40
2019-01-04T07:52:07.191Z,131.30
2019-01-04T07:54:47.342Z,130.23
2019-01-04T07:57:27.374Z,119.80
2019-01-04T08:00:07.399Z,119.17
2019-01-04T08:02:47.203Z,122.10
2019-01-04T08:05:27.163Z,124.43
2019-01-04T08:08:07.503Z,121.30
2019-01-04T08:10:47.394Z,130.00
2019-01-04T08:13:27.512Z,134.53
2019-01-04T08:16:07.472Z,124.63
2019-01-04T08:18:47.499Z,125.07
2019-01-04T08:21:27.865Z,130.90
2019-01-04T08:24:07.701Z,133.10
2019-01-04T08:26:47.757Z,133.57
2019-01-04T08:29:27.632Z,127.33
2019-01-04T08:32:07.916Z,125.40
2019-01-04T08:34:48.008Z,123.10
2019-01-04T08:37:28.261Z,131.03
2019-01-04T08:40:08.137Z,128.23
2019-01-04T08:42:48.137Z,126.57
2019-01-04T08:45:28.094Z,121.60
2019-01-04T08:48:08.143Z,126.57
2019-01-04T08:50:48.081Z,127.60
2019-01-04T08:53:28.117Z,134.40
2019-01-04T08:58:39.782Z,130.20
2019-01-04T09:01:19.658Z,128.90
2019-01-04T09:03:59.867Z,126.60
2019-01-04T09:06:40.054Z,130.20
2019-01-04T09:09:22.478Z,123.80
2019-01-04T09:12:02.326Z,123.40
2019-01-04T09:14:42.173Z,120.07
2019-01-04T09:17:22.223Z,124.87
2019-01-04T09:20:02.327Z,124.77
2019-01-04T09:22:42.422Z,125.87
2019-01-04T09:25:22.593Z,124.23
2019-01-04T09:28:02.889Z,126.17
2019-01-04T09:30:42.279Z,127.40
2019-01-04T09:33:22.463Z,122.57
2019-01-04T09:36:01.861Z,124.17
2019-01-04T09:38:42.040Z,126.13
2019-01-04T09:41:21.309Z,129.07
2019-01-04T09:44:01.805Z,129.10
2019-01-04T09:46:41.928Z,130.93
2019-01-04T09:49:22.650Z,130.50
2019-01-04T09:52:02.999Z,127.20
2019-01-04T09:54:43.052Z,127.30
2019-01-04T09:57:23.607Z,131.87
2019-01-04T10:00:03.235Z,128.83
2019-01-04T10:02:43.405Z,124.43
2019-01-04T10:05:23.376Z,126.27
2019-01-04T10:08:02.831Z,124.27
2019-01-04T10:10:42.841Z,126.17
2019-01-04T10:13:22.084Z,123.37
2019-01-04T10:16:02.085Z,128.77
2019-01-04T10:18:42.426Z,125.17
2019-01-04T10:21:22.503Z,125.00
2019-01-04T10:24:02.537Z,131.40
2019-01-04T10:26:42.246Z,132.00
2019-01-04T10:29:21.572Z,128.07
2019-01-04T10:32:00.827Z,124.30
2019-01-04T10:34:40.885Z,126.70
2019-01-04T10:37:20.928Z,126.17
2019-01-04T10:40:01.295Z,125.97
2019-01-04T10:42:41.268Z,125.43
2019-01-04T10:45:20.579Z,122.70
2019-01-04T10:48:00.589Z,129.10
2019-01-04T10:50:40.202Z,123.03
2019-01-04T10:53:20.668Z,124.47
2019-01-04T10:56:00.260Z,123.60
2019-01-04T10:58:40.432Z,127.10
2019-01-04T11:01:20.278Z,127.27
2019-01-04T11:04:00.302Z,122.87
2019-01-04T11:06:40.530Z,127.87
2019-01-04T11:09:19.912Z,126.50
2019-01-04T11:12:00.061Z,127.47
2019-01-04T11:14:40.126Z,127.87
2019-01-04T11:17:20.238Z,123.73
2019-01-04T11:20:00.439Z,127.53
2019-01-04T11:22:40.522Z,127.73
2019-01-04T11:25:20.580Z,126.73
2019-01-04T11:28:00.314Z,133.20
2019-01-04T11:30:40.135Z,127.00
2019-01-04T11:33:20.396Z,131.13
2019-01-04T11:36:00.377Z,123.37
2019-01-04T11:38:40.396Z,125.57
2019-01-04T11:41:20.517Z,128.23
2019-01-04T11:44:00.602Z,130.20
2019-01-04T11:46:40.857Z,130.80
2019-01-04T11:49:20.510Z,132.33
2019-01-04T11:52:00.435Z,124.10
2019-01-04T11:54:40.394Z,125.10
2019-01-04T11:57:20.539Z,127.13
2019-01-04T12:00:00.617Z,134.30
2019-01-04T12:02:40.714Z,126.10
2019-01-04T12:05:20.785Z,128.23
2019-01-04T12:08:00.717Z,128.67
2019-01-04T12:10:40.845Z,133.93
2019-01-04T12:13:20.727Z,132.07
2019-01-04T12:16:00.797Z,123.23
2019-01-04T12:18:27.237Z,126.60
2019-01-04T12:21:13.585Z,128.90
2019-01-04T12:23:53.857Z,128.67
2019-01-04T12:26:33.949Z,127.57
2019-01-04T12:29:13.865Z,136.80
2019-01-04T12:31:54.082Z,129.20
2019-01-04T12:34:34.063Z,124.97
2019-01-04T12:37:14.172Z,125.90
2019-01-04T12:39:54.238Z,123.70
2019-01-04T12:42:34.348Z,127.17
2019-01-04T12:45:14.823Z,131.67
2019-01-04T12:47:54.344Z,134.47
2019-01-04T12:50:34.443Z,127.20
2019-01-04T12:53:14.559Z,128.17
2019-01-04T12:55:54.539Z,128.47
2019-01-04T12:58:34.671Z,125.70
2019-01-04T13:01:14.695Z,124.67
2019-01-04T13:03:54.646Z,125.40
2019-01-04T13:06:34.602Z,131.47
2019-01-04T13:09:14.565Z,137.73
2019-01-04T13:11:54.591Z,129.87
2019-01-04T13:14:34.667Z,142.03
2019-01-04T13:17:14.617Z,134.93
2019-01-04T13:19:54.803Z,126.30
2019-01-04T13:22:34.978Z,128.00
2019-01-04T13:25:15.041Z,127.47
2019-01-04T13:27:55.374Z,124.53
2019-01-04T13:30:35.099Z,129.80
2019-01-04T13:33:15.302Z,126.63
2019-01-04T13:35:55.224Z,132.57
2019-01-04T13:38:35.229Z,131.70
2019-01-04T13:41:15.202Z,133.53
2019-01-04T13:43:56.475Z,121.77
2019-01-04T13:46:36.456Z,137.50
2019-01-04T13:49:16.791Z,125.80
2019-01-04T13:51:56.755Z,129.30
2019-01-04T13:54:36.825Z,127.13
2019-01-04T13:57:16.647Z,126.47
2019-01-04T13:59:56.714Z,126.77
2019-01-04T14:02:36.840Z,132.90
2019-01-04T14:05:16.826Z,136.53
2019-01-04T14:07:56.802Z,138.67
2019-01-04T14:10:36.837Z,133.03
2019-01-04T14:13:16.833Z,133.70
2019-01-04T14:15:56.908Z,134.40
2019-01-04T14:18:36.946Z,128.57
2019-01-04T14:21:17.182Z,132.53
2019-01-04T14:23:57.223Z,134.20
2019-01-04T14:26:37.495Z,124.30
2019-01-04T14:29:17.404Z,136.47
2019-01-04T14:31:57.406Z,132.57
2019-01-04T14:34:37.829Z,128.63
2019-01-04T14:37:18.339Z,135.00
2019-01-04T14:39:58.207Z,134.00
2019-01-04T14:42:38.298Z,132.00
2019-01-04T14:45:18.313Z,126.20
2019-01-04T14:47:59.469Z,126.70
2019-01-04T14:50:41.420Z,123.77
2019-01-04T14:53:21.521Z,134.37
2019-01-04T14:56:01.565Z,131.10
2019-01-04T14:58:41.732Z,128.70
2019-01-04T15:01:22.040Z,127.30
2019-01-04T15:04:01.934Z,126.57
2019-01-04T15:06:42.053Z,124.67
2019-01-04T15:09:22.181Z,132.07
2019-01-04T15:12:02.043Z,128.07
2019-01-04T15:14:42.111Z,122.10
2019-01-04T15:17:22.688Z,130.10
2019-01-04T15:20:02.303Z,127.57
2019-01-04T15:22:42.770Z,131.27
2019-01-04T15:25:22.204Z,130.23
2019-01-04T15:28:02.404Z,123.37
2019-01-04T15:30:42.303Z,128.30
2019-01-04T15:33:22.582Z,124.67
2019-01-04T15:36:02.755Z,123.50
2019-01-04T15:38:43.071Z,123.30
2019-01-04T15:41:23.101Z,131.43
2019-01-04T15:44:03.283Z,136.00
2019-01-04T15:46:43.072Z,125.90
2019-01-04T15:49:23.096Z,122.70
2019-01-04T15:52:03.120Z,124.37
2019-01-04T15:54:43.240Z,123.37
2019-01-04T15:57:23.098Z,122.73
2019-01-04T16:00:03.316Z,124.53
2019-01-04T16:02:43.993Z,127.03
2019-01-04T16:05:24.115Z,121.10
2019-01-04T16:08:04.218Z,124.40
2019-01-04T16:10:44.215Z,123.77
2019-01-04T16:13:24.229Z,122.10
2019-01-04T16:16:03.565Z,122.17
2019-01-04T16:18:43.381Z,123.97
2019-01-04T16:21:23.395Z,125.93
2019-01-04T16:24:03.539Z,126.97
2019-01-04T16:26:43.639Z,126.17
2019-01-04T16:29:23.659Z,123.67
2019-01-04T16:32:03.719Z,122.97
2019-01-04T16:34:43.791Z,127.30
2019-01-04T16:37:23.929Z,124.20
2019-01-04T16:40:03.631Z,120.20
2019-01-04T16:42:43.502Z,125.63
2019-01-04T16:45:23.498Z,123.13
2019-01-04T16:48:03.819Z,121.30
2019-01-04T16:50:43.542Z,123.60
2019-01-04T16:53:23.730Z,123.13
2019-01-04T16:56:03.774Z,120.87
2019-01-04T16:58:43.561Z,120.90
2019-01-04T17:01:23.615Z,130.77
2019-01-04T17:04:03.677Z,120.37
2019-01-04T17:06:43.007Z,119.70
2019-01-04T17:09:23.239Z,127.60
2019-01-04T17:12:03.285Z,125.70
2019-01-04T17:14:43.309Z,123.27
2019-01-04T17:17:23.219Z,122.30
2019-01-04T17:20:04.430Z,120.00
2019-01-04T17:22:44.442Z,131.37
2019-01-04T17:25:24.615Z,124.37
2019-01-04T17:28:04.837Z,125.93
2019-01-04T17:30:44.684Z,120.20
2019-01-04T17:33:24.478Z,126.60
2019-01-04T17:36:04.526Z,123.97
2019-01-04T17:38:44.812Z,127.60
2019-01-04T17:41:24.455Z,128.20
2019-01-04T17:44:04.607Z,119.70
2019-01-04T17:46:44.694Z,121.90
2019-01-04T17:49:24.865Z,119.07
2019-01-04T17:52:04.835Z,121.60
2019-01-04T17:54:45.636Z,121.37
2019-01-04T17:57:25.267Z,122.10
2019-01-04T18:00:05.109Z,121.23
2019-01-04T18:02:45.089Z,118.80
2019-01-04T18:05:25.336Z,120.23
2019-01-04T18:08:05.333Z,116.43
2019-01-04T18:10:45.525Z,119.87
2019-01-04T18:13:25.688Z,119.90
2019-01-04T18:16:05.881Z,117.47
2019-01-04T18:18:45.783Z,120.67
2019-01-04T18:21:25.743Z,123.60
2019-01-04T18:24:05.494Z,124.20
2019-01-04T18:26:44.976Z,125.37
2019-01-04T18:29:24.900Z,120.10
2019-01-04T18:32:04.723Z,124.47
2019-01-04T18:34:44.740Z,126.10
2019-01-04T18:37:24.792Z,122.70
2019-01-04T18:40:04.972Z,126.57
2019-01-04T18:42:44.994Z,133.20
2019-01-04T18:45:25.036Z,132.80
2019-01-04T18:48:05.150Z,128.03
2019-01-04T18:50:46.379Z,126.97
2019-01-04T18:53:26.182Z,132.10
2019-01-04T18:56:06.512Z,132.80
2019-01-04T18:58:46.417Z,132.67
2019-01-04T19:01:26.715Z,136.97
2019-01-04T19:04:06.377Z,139.37
2019-01-04T19:06:46.355Z,129.27
2019-01-04T19:09:26.406Z,135.23
2019-01-04T19:12:06.317Z,136.53
2019-01-04T19:14:46.400Z,130.27
2019-01-04T19:17:26.348Z,137.77
2019-01-04T19:20:06.328Z,137.13
2019-01-04T19:22:46.496Z,129.27
2019-01-04T19:25:26.270Z,136.37
2019-01-04T19:28:06.507Z,141.40
2019-01-04T19:30:46.512Z,142.27
2019-01-04T19:33:27.537Z,135.47
2019-01-04T19:36:07.551Z,133.23
2019-01-04T19:38:47.421Z,136.50
2019-01-04T19:41:27.376Z,136.67
2019-01-04T19:44:07.564Z,138.87
2019-01-04T19:46:47.725Z,141.57
2019-01-04T19:49:27.735Z,136.60
2019-01-04T19:52:07.696Z,148.07
2019-01-04T19:54:47.749Z,146.40
2019-01-04T19:57:27.577Z,139.10
2019-01-04T20:00:07.945Z,153.67
2019-01-04T20:02:47.541Z,134.90
2019-01-04T20:08:46.933Z,135.67
2019-01-04T20:11:28.884Z,133.93
2019-01-04T20:14:28.864Z,132.40
2019-01-04T20:17:15.990Z,135.37
2019-01-04T20:20:00.903Z,135.87
2019-01-04T20:23:00.133Z,139.07
2019-01-04T20:29:13.850Z,132.67
2019-01-04T20:31:55.464Z,131.60
2019-01-04T20:34:56.383Z,133.40
2019-01-04T20:37:37.535Z,129.47
2019-01-04T20:43:35.422Z,132.07
2019-01-04T20:46:35.433Z,127.03
2019-01-04T20:49:34.742Z,135.33
2019-01-04T20:52:33.830Z,125.53
2019-01-04T20:55:18.809Z,131.60
2019-01-04T20:58:18.990Z,134.27
2019-01-04T21:01:03.037Z,135.40
2019-01-04T21:03:47.217Z,131.07
2019-01-04T21:06:32.593Z,123.67
2019-01-04T21:09:32.451Z,125.37
2019-01-04T21:12:32.783Z,126.50
2019-01-04T21:15:14.503Z,125.00
2019-01-04T21:18:13.701Z,127.67
2019-01-04T21:21:13.779Z,129.40
2019-01-04T21:27:09.059Z,126.93
2019-01-04T21:29:50.964Z,122.63
2019-01-04T21:32:32.278Z,131.30
2019-01-04T21:35:14.224Z,130.43
2019-01-04T21:37:56.205Z,124.73
2019-01-04T21:40:55.466Z,125.40
2019-01-04T21:43:54.700Z,122.30
2019-01-04T21:46:35.937Z,126.70
2019-01-04T21:49:35.972Z,119.97
2019-01-04T21:52:17.176Z,127.03
2019-01-04T21:58:15.224Z,120.20
2019-01-04T22:01:00.334Z,124.70
2019-01-04T22:03:42.528Z,123.77
2019-01-04T22:06:42.343Z,119.67
2019-01-04T22:09:41.578Z,122.57
2019-01-04T22:15:30.907Z,124.10
2019-01-04T22:18:30.946Z,133.40
2019-01-04T22:21:15.065Z,119.90
2019-01-04T22:24:17.942Z,121.53
2019-01-04T22:27:05.435Z,117.87
2019-01-04T22:32:48.831Z,117.47
2019-01-04T22:35:49.750Z,120.13
2019-01-04T22:38:48.930Z,116.97
2019-01-04T22:41:48.631Z,119.60
2019-01-04T22:44:48.404Z,118.07
2019-01-04T22:47:48.558Z,116.77
2019-01-04T22:50:47.712Z,118.30
2019-01-04T22:53:47.033Z,113.10
2019-01-04T22:56:49.183Z,116.33
2019-01-04T22:59:35.487Z,114.73
2019-01-04T23:08:49.818Z,115.50
2019-01-04T23:11:31.959Z,115.97
2019-01-04T23:14:13.796Z,115.97
2019-01-04T23:17:00.798Z,113.23
2019-01-04T23:19:45.246Z,112.93
2019-01-04T23:22:27.217Z,114.23
2019-01-04T23:25:26.703Z,112.60
2019-01-04T23:28:08.469Z,115.40
2019-01-04T23:30:50.585Z,111.97
2019-01-04T23:33:32.447Z,112.47
2019-01-04T23:36:32.457Z,115.43
2019-01-04T23:39:16.433Z,114.83
2019-01-04T23:42:15.924Z,112.60
2019-01-04T23:44:57.165Z,113.57
2019-01-04T23:47:56.996Z,114.57
2019-01-04T23:50:56.310Z,112.07
2019-01-04T23:53:55.623Z,114.40
